»·PEaware :: AAL404 KLAS-KSNA

AAL404 :: KLAS-KSNA

FLIGHT INFORMATION

Flight Status: Arrived
Operator:
American Airlines
More flights by this operator :: More flights under this callsign
Pilot: Wadhah A. (6578)
Aircraft: EMBRAER ERJ-135/140
(E135)
More flights by this aircraft type
Origin: KLAS McCarran Intl
United States
Destination: KSNA John Wayne-Orange Co
United States
More flights between these airports :: More routes between these airports
Route: BOACH6 HEC KAYOH5
File this flight plan on PilotEdge
Remarks:
Altitude:
(Current/Filed)
28,000ft
Speed:
(Current/Filed)
460kts
Departed: 23-May-15 07:22 PM
Arrived: 23-May-15 08:04 PM
Distance/Time
Traveled:
196nm/0:42
Distance/Time
To Go:
Arrived

Flight Plot

Page will automatically refresh every two minutes.


Map Options




Map Legend


Flown Route
Filed Route
Departure Airport
Arrival Airport
Navaid (VOR, NDB)
Fix

Horizontal Profiles

Position Reports

Time Latitude Longitude Heading Altitude Ground
Speed
23-May-15 18:48 36.080613 -115.140607 134 2149ft 0kts
23-May-15 18:49 36.080613 -115.140607 134 2149ft 0kts
23-May-15 18:50 36.080613 -115.140607 134 2149ft 0kts
23-May-15 18:51 36.080613 -115.140607 134 2149ft 0kts
23-May-15 18:52 36.080613 -115.140607 134 2149ft 0kts
23-May-15 18:53 36.080613 -115.140607 134 2149ft 0kts
23-May-15 18:54 36.080613 -115.140607 134 2149ft 0kts
23-May-15 18:55 36.080613 -115.140607 134 2149ft 0kts
23-May-15 18:56 36.080613 -115.140607 134 2149ft 0kts
23-May-15 18:57 36.080613 -115.140607 134 2149ft 0kts
23-May-15 18:58 36.080613 -115.140607 134 2149ft 0kts
23-May-15 18:59 36.080613 -115.140607 134 2149ft 0kts
23-May-15 19:00 36.080613 -115.140607 134 2149ft 0kts
23-May-15 19:01 36.080613 -115.140607 134 2149ft 0kts
23-May-15 19:02 36.080613 -115.140607 134 2149ft 0kts
23-May-15 19:03 36.080613 -115.140607 134 2149ft 0kts
23-May-15 19:04 36.080613 -115.140607 134 2149ft 0kts
23-May-15 19:05 36.081322 -115.140981 228 2149ft 0kts
23-May-15 19:06 36.081322 -115.140981 228 2149ft 0kts
23-May-15 19:07 36.081322 -115.140981 228 2149ft 0kts
23-May-15 19:08 36.081322 -115.140981 228 2149ft 0kts
23-May-15 19:09 36.081322 -115.140981 228 2149ft 0kts
23-May-15 19:10 36.080798 -115.141549 202 2149ft 9kts
23-May-15 19:11 36.078940 -115.141624 183 2149ft 6kts
23-May-15 19:12 36.078247 -115.137186 89 2149ft 19kts
23-May-15 19:13 36.078253 -115.130148 89 2149ft 20kts
23-May-15 19:14 36.078250 -115.123055 94 2149ft 15kts
23-May-15 19:15 36.077441 -115.121592 138 2149ft 0kts
23-May-15 19:16 36.077441 -115.121592 138 2149ft 0kts
23-May-15 19:17 36.076653 -115.121386 202 2149ft 10kts
23-May-15 19:18 36.076449 -115.160395 268 3164ft 175kts
23-May-15 19:19 36.074427 -115.227169 241 6880ft 191kts
23-May-15 19:20 36.019433 -115.265020 208 10783ft 289kts
23-May-15 19:21 35.933542 -115.293968 188 15768ft 350kts
23-May-15 19:22 35.832509 -115.301449 176 19032ft 408kts
23-May-15 19:23 35.722399 -115.291489 182 22888ft 423kts
23-May-15 19:24 35.616637 -115.358714 230 22922ft 467kts
23-May-15 19:25 35.535990 -115.476735 229 25187ft 423kts
23-May-15 19:26 35.457958 -115.584622 229 27833ft 436kts
23-May-15 19:27 35.374748 -115.697513 230 27915ft 465kts
23-May-15 19:28 35.289083 -115.813517 230 27917ft 455kts
23-May-15 19:29 35.206293 -115.925675 229 27924ft 435kts
23-May-15 19:30 35.139443 -116.014609 229 27545ft 416kts
23-May-15 19:31 35.049397 -116.132814 229 25397ft 404kts
23-May-15 19:32 34.974607 -116.233163 229 23995ft 396kts
23-May-15 19:33 34.912846 -116.314251 229 23516ft 399kts
23-May-15 19:34 34.833951 -116.412661 232 21791ft 407kts
23-May-15 19:35 34.755241 -116.510459 230 20437ft 403kts
23-May-15 19:36 34.678585 -116.605837 231 18876ft 387kts
23-May-15 19:37 34.608904 -116.694441 228 17012ft 358kts
23-May-15 19:38 34.541193 -116.776513 229 15635ft 323kts
23-May-15 19:39 34.479511 -116.852460 228 13394ft 311kts
23-May-15 19:40 34.418977 -116.926314 228 12834ft 312kts
23-May-15 19:41 34.355622 -117.003401 228 12914ft 350kts
23-May-15 19:42 34.286695 -117.088447 225 12956ft 342kts
23-May-15 19:43 34.201382 -117.120770 187 11073ft 326kts
23-May-15 19:44 34.130010 -117.166569 233 10970ft 296kts
23-May-15 19:45 34.071267 -117.234140 219 10969ft 294kts
23-May-15 19:46 34.008196 -117.294011 218 10924ft 269kts
23-May-15 19:47 33.950164 -117.345792 218 9554ft 255kts
23-May-15 19:48 33.894776 -117.394359 218 8142ft 244kts
23-May-15 19:49 33.842367 -117.439604 218 7962ft 226kts
23-May-15 19:50 33.795554 -117.483107 248 7956ft 202kts
23-May-15 19:51 33.784476 -117.549533 261 7971ft 207kts
23-May-15 19:52 33.807193 -117.608977 303 7245ft 204kts
23-May-15 19:53 33.838445 -117.661637 303 5039ft 187kts
23-May-15 19:54 33.867924 -117.712646 284 2968ft 166kts
23-May-15 19:55 33.841321 -117.761883 212 2981ft 179kts
23-May-15 19:56 33.798948 -117.789850 209 2618ft 166kts
23-May-15 19:57 33.759468 -117.815174 208 1806ft 163kts
23-May-15 19:58 33.720316 -117.840238 208 933ft 149kts
23-May-15 19:59 33.685319 -117.862686 208 167ft 136kts
23-May-15 20:00 33.669411 -117.871916 140 64ft 11kts
23-May-15 20:01 33.671662 -117.868461 31 64ft 20kts
23-May-15 20:02 33.675971 -117.865310 27 64ft 16kts
23-May-15 20:03 33.677537 -117.864319 28 64ft 0kts
23-May-15 20:04 33.677537 -117.864319 28 64ft 0kts
23-May-15 20:05 33.680700 -117.862314 28 64ft 18kts
23-May-15 20:06 33.681137 -117.861204 117 64ft 0kts
23-May-15 20:07 33.681137 -117.861204 117 64ft 0kts
23-May-15 20:08 33.681137 -117.861204 117 64ft 0kts
23-May-15 20:09 33.681137 -117.861204 117 64ft 0kts

Navigation Log

Ident Type
Flight plan parsing failed, navigation log unavailable